Terminal Aerodrome Forecast
Issued by NWS

Home | Current Version | Previous Version | Text Only | Print | Product List | Glossary On
Versions: 1 2 3 4 5 6 7 8 9 10 11 12 13 14 15 16 17 18 19
381
FTUS44 KLZK 262330
TAFBPK
TAF
KBPK 262330Z 2700/2724 10007KT P6SM VCSH OVC060
     FM270400 11005KT P6SM VCSH SCT025 OVC040
     FM270800 11005KT 6SM -SHRA BR BKN010 OVC040
      TEMPO 2710/2714 2SM -SHRA BR OVC008
     FM271500 14005KT P6SM VCSH BKN008 OVC040=

USA.gov is the U.S. government's official web portal to all federal, state and local government web resources and services.